Time;durP1;ratioP1;P1;durP2;ratioP2;P2;SDS_P1;SDS_P2;PMS_P1;PMS_P2;Temp;Humidity;BMP_temperature;BMP_pressure;BME280_temperature;BME280_humidity;BME280_pressure;Samples;Min_cycle;Max_cycle;Signal;HPM_P1;HPM_P2
2023/10/05 00:00:39;;;;;;;;;0.00;0.00;;;;;15.65;68.64;102175.66;4979261;28;9025;-70
2023/10/05 00:03:06;;;;;;;;;1.33;1.00;;;;;15.64;68.63;102175.81;4987214;28;8952;-69
2023/10/05 00:05:36;;;;;;;;;0.00;0.00;;;;;15.65;68.38;102177.53;4992175;28;9089;-70
2023/10/05 00:08:07;;;;;;;;;0.00;0.00;;;;;15.68;68.19;102175.28;4969271;28;9006;-70
2023/10/05 00:10:33;;;;;;;;;1.00;1.00;;;;;15.70;67.99;102170.47;5005926;28;9110;-70
2023/10/05 00:13:05;;;;;;;;;1.00;0.00;;;;;15.72;67.89;102164.88;4992870;28;9093;-69
2023/10/05 00:15:32;;;;;;;;;0.25;0.25;;;;;15.76;67.96;102169.72;4974706;28;10351;-70
2023/10/05 00:17:59;;;;;;;;;0.50;0.50;;;;;15.79;67.94;102179.31;4976777;28;8889;-70
2023/10/05 00:20:32;;;;;;;;;0.00;0.00;;;;;15.80;68.00;102175.59;4975453;28;8841;-70
2023/10/05 00:23:03;;;;;;;;;0.75;0.00;;;;;15.79;68.33;102177.44;4975738;28;8857;-70
2023/10/05 00:25:33;;;;;;;;;0.33;0.00;;;;;15.78;68.11;102175.75;4975926;28;8852;-70
2023/10/05 00:28:05;;;;;;;;;1.75;1.00;;;;;15.76;68.46;102174.31;4980777;28;8925;-71
2023/10/05 00:30:31;;;;;;;;;0.00;0.00;;;;;15.75;68.98;102169.88;4980541;28;8955;-70
2023/10/05 00:32:58;;;;;;;;;0.50;0.50;;;;;15.76;69.06;102177.00;4991432;28;8860;-70
2023/10/05 00:35:27;;;;;;;;;0.75;0.75;;;;;15.78;69.13;102175.75;4975188;28;8859;-70
2023/10/05 00:37:57;;;;;;;;;0.75;0.75;;;;;15.78;69.34;102172.22;4992017;28;8855;-70
2023/10/05 00:40:35;;;;;;;;;1.67;1.00;;;;;15.78;69.81;102177.66;4975929;28;8845;-70
2023/10/05 00:43:23;;;;;;;;;1.00;1.00;;;;;15.75;70.16;102173.44;4990296;28;8893;-70
2023/10/05 00:45:56;;;;;;;;;1.33;1.33;;;;;15.76;70.12;102177.00;4975003;28;8857;-70
2023/10/05 00:49:00;;;;;;;;;2.67;1.00;;;;;15.80;70.09;102186.44;4992122;28;9732;-70
2023/10/05 00:51:23;;;;;;;;;2.00;2.00;;;;;15.78;70.46;102173.03;4979640;28;9016;-70
2023/10/05 00:53:52;;;;;;;;;1.00;1.00;;;;;15.83;70.76;102181.44;4981301;28;8909;-70
2023/10/05 00:56:23;;;;;;;;;1.33;1.00;;;;;15.86;70.56;102173.94;4991304;28;8831;-70
2023/10/05 00:58:55;;;;;;;;;1.00;1.00;;;;;15.88;70.22;102182.72;4992496;28;8933;-70
2023/10/05 01:01:24;;;;;;;;;0.75;0.75;;;;;15.89;70.18;102187.13;4987935;28;9037;-70
2023/10/05 01:06:39;;;;;;;;;3.00;3.00;;;;;15.78;69.25;102170.34;4972028;28;8935;-70
2023/10/05 01:09:15;;;;;;;;;2.00;2.00;;;;;15.73;68.88;102167.38;4975232;28;9002;-70
2023/10/05 01:11:52;;;;;;;;;3.33;2.00;;;;;15.75;68.12;102169.88;4991552;28;8937;-69
2023/10/05 01:14:19;;;;;;;;;1.50;1.50;;;;;15.72;67.89;102162.16;4968547;28;8945;-70
2023/10/05 01:16:46;;;;;;;;;2.00;2.00;;;;;15.70;67.97;102159.63;4991398;28;8865;-70
2023/10/05 01:19:12;;;;;;;;;2.00;2.00;;;;;15.72;67.54;102164.88;4971696;28;8943;-70
2023/10/05 01:21:42;;;;;;;;;1.00;1.00;;;;;15.75;67.73;102167.16;4993292;28;9006;-70
2023/10/05 01:24:10;;;;;;;;;0.00;0.00;;;;;15.74;67.70;102163.63;4966514;28;9686;-70
2023/10/05 01:26:37;;;;;;;;;2.00;0.67;;;;;15.68;67.05;102167.13;4989675;28;9079;-70
2023/10/05 01:29:04;;;;;;;;;3.00;1.67;;;;;15.67;67.51;102165.44;4974711;28;9745;-70
2023/10/05 01:31:32;;;;;;;;;1.00;1.00;;;;;15.73;67.16;102158.41;4991758;28;9670;-69
2023/10/05 01:33:59;;;;;;;;;2.00;1.00;;;;;15.76;67.23;102166.16;4973833;28;9207;-70
2023/10/05 01:36:26;;;;;;;;;1.00;1.00;;;;;15.74;67.17;102169.06;4991088;28;9012;-70
2023/10/05 01:39:01;;;;;;;;;1.00;1.00;;;;;15.75;67.34;102161.75;4976477;28;9028;-70
2023/10/05 01:41:28;;;;;;;;;0.33;0.33;;;;;15.75;67.00;102167.16;4971853;28;9057;-70
2023/10/05 01:43:56;;;;;;;;;2.67;1.00;;;;;15.76;67.15;102175.13;4971295;28;8997;-70
2023/10/05 01:46:23;;;;;;;;;2.00;2.00;;;;;15.75;66.72;102168.00;4989126;28;8964;-70
2023/10/05 01:48:51;;;;;;;;;1.00;0.00;;;;;15.77;67.05;102171.38;4979821;28;9012;-70
2023/10/05 01:51:25;;;;;;;;;2.50;1.00;;;;;15.78;66.84;102170.34;4985443;28;8919;-70
2023/10/05 01:53:57;;;;;;;;;1.00;1.00;;;;;15.75;66.90;102170.72;4988098;28;8845;-70
2023/10/05 01:56:25;;;;;;;;;1.00;1.00;;;;;15.77;66.57;102167.81;4988909;28;8821;-70
2023/10/05 01:58:54;;;;;;;;;2.00;1.00;;;;;15.74;66.92;102166.34;4974127;28;9588;-70
2023/10/05 02:01:21;;;;;;;;;1.00;1.00;;;;;15.76;67.44;102164.28;4980150;28;8944;-70
2023/10/05 02:03:59;;;;;;;;;1.00;1.00;;;;;15.75;67.43;102161.75;4980880;28;8848;-70
2023/10/05 02:06:28;;;;;;;;;2.00;1.00;;;;;15.75;67.93;102164.44;4988362;28;8859;-70
2023/10/05 02:08:54;;;;;;;;;1.00;1.00;;;;;15.75;68.02;102168.00;4985719;28;8843;-70
2023/10/05 02:11:24;;;;;;;;;1.00;1.00;;;;;15.76;67.87;102164.28;4970846;28;8999;-70
2023/10/05 02:13:52;;;;;;;;;2.00;0.50;;;;;15.78;68.17;102158.63;4969636;28;9109;-70
2023/10/05 02:16:22;;;;;;;;;1.00;1.00;;;;;15.76;68.48;102155.28;4971878;28;8922;-70
2023/10/05 02:18:49;;;;;;;;;1.00;1.00;;;;;15.73;68.63;102155.69;4958107;28;8957;-69
2023/10/05 02:24:18;;;;;;;;;1.67;0.67;;;;;15.71;69.14;102150.44;4990094;28;9564;-69
2023/10/05 02:29:29;;;;;;;;;1.33;1.00;;;;;15.66;68.78;102146.63;4991154;28;8919;-69
2023/10/05 02:34:38;;;;;;;;;1.25;0.00;;;;;15.66;68.65;102152.91;4989835;28;8935;-69
2023/10/05 02:37:07;;;;;;;;;3.00;1.00;;;;;15.63;68.54;102155.97;4956210;28;8910;-69
2023/10/05 02:39:36;;;;;;;;;0.00;0.00;;;;;15.64;68.64;102146.81;4973805;28;8867;-70
2023/10/05 02:42:14;;;;;;;;;1.25;1.00;;;;;15.66;68.29;102155.63;4963172;28;9022;-69
2023/10/05 02:44:43;;;;;;;;;1.50;0.75;;;;;15.68;68.32;102152.72;4974953;28;8852;-70
2023/10/05 02:47:13;;;;;;;;;0.00;0.00;;;;;15.68;68.20;102147.28;4971355;28;8871;-69
2023/10/05 02:49:44;;;;;;;;;0.25;0.25;;;;;15.68;68.22;102153.56;4973455;28;8931;-70
2023/10/05 02:52:13;;;;;;;;;1.75;1.00;;;;;15.67;68.45;102151.03;4972691;28;8851;-70
2023/10/05 02:54:40;;;;;;;;;1.00;1.00;;;;;15.68;68.75;102152.72;5014276;23;9030;-68
2023/10/05 02:57:07;;;;;;;;;0.00;0.00;;;;;15.68;68.84;102156.28;4990348;28;8839;-68
2023/10/05 02:59:34;;;;;;;;;0.00;0.00;;;;;15.69;68.51;102152.50;4992292;28;9643;-68
2023/10/05 03:02:06;;;;;;;;;3.00;2.00;;;;;15.69;68.43;102160.66;4991635;28;9135;-70
2023/10/05 03:07:25;;;;;;;;;0.00;0.00;;;;;15.68;68.70;102156.28;4988874;28;8861;-67
2023/10/05 03:09:59;;;;;;;;;2.00;1.00;;;;;15.66;68.63;102160.22;5006636;28;9004;-67
2023/10/05 03:12:29;;;;;;;;;1.00;1.00;;;;;15.63;68.74;102157.84;5021651;28;8956;-68
2023/10/05 03:15:05;;;;;;;;;1.67;1.67;;;;;15.61;68.69;102151.78;5004070;28;8953;-68
2023/10/05 03:17:34;;;;;;;;;0.75;0.75;;;;;15.61;68.96;102152.63;5003379;28;8919;-67
2023/10/05 03:20:15;;;;;;;;;0.00;0.00;;;;;15.63;68.93;102157.84;4988936;28;8944;-67
2023/10/05 03:22:45;;;;;;;;;1.67;1.00;;;;;15.61;68.97;102152.63;5005878;28;8850;-68
2023/10/05 03:25:16;;;;;;;;;1.00;1.00;;;;;15.58;68.75;102153.00;5006222;28;9660;-68
2023/10/05 03:27:45;;;;;;;;;1.00;1.00;;;;;15.56;68.75;102144.22;4991864;28;9225;-68
2023/10/05 03:30:14;;;;;;;;;1.00;1.00;;;;;15.55;68.96;102151.50;5003955;28;9801;-69
2023/10/05 03:32:42;;;;;;;;;1.00;1.00;;;;;15.57;69.12;102151.34;5000613;28;8938;-69
2023/10/05 03:35:09;;;;;;;;;0.67;0.00;;;;;15.56;68.67;102155.09;4988020;28;9029;-68
2023/10/05 03:37:39;;;;;;;;;0.00;0.00;;;;;15.55;68.98;102151.50;4988745;28;9015;-69
2023/10/05 03:40:19;;;;;;;;;1.00;1.00;;;;;15.52;68.89;102151.91;5004509;28;9012;-68
2023/10/05 03:42:46;;;;;;;;;0.67;0.33;;;;;15.47;68.63;102153.53;4991660;28;9809;-67
2023/10/05 03:45:16;;;;;;;;;0.67;0.67;;;;;15.49;68.90;102154.19;5001520;28;9110;-68
2023/10/05 03:47:43;;;;;;;;;1.00;1.00;;;;;15.44;68.65;102143.09;5016081;28;9038;-68
2023/10/05 03:50:17;;;;;;;;;1.00;1.00;;;;;15.44;68.72;102149.34;5004781;28;8958;-68
2023/10/05 03:52:47;;;;;;;;;1.00;1.00;;;;;15.44;68.46;102143.91;4988936;28;9066;-67
2023/10/05 03:55:19;;;;;;;;;1.00;0.33;;;;;15.43;68.51;102144.09;4992231;28;9054;-68
2023/10/05 03:57:49;;;;;;;;;1.00;1.00;;;;;15.44;68.17;102149.34;4988633;28;9014;-68
2023/10/05 04:00:23;;;;;;;;;0.00;0.00;;;;;15.47;68.47;102137.25;5019067;28;9081;-68
2023/10/05 04:02:54;;;;;;;;;1.67;1.67;;;;;15.45;68.42;102144.75;5016877;28;9024;-68
2023/10/05 04:05:22;;;;;;;;;1.00;1.00;;;;;15.45;67.90;102140.16;5004653;28;8945;-68
2023/10/05 04:07:52;;;;;;;;;1.00;1.00;;;;;15.47;68.12;102142.66;4989413;28;8883;-66
2023/10/05 04:10:23;;;;;;;;;0.33;0.33;;;;;15.45;68.00;102139.31;4988993;28;9020;-66
2023/10/05 04:12:54;;;;;;;;;1.00;1.00;;;;;15.45;67.75;102145.59;5003671;28;9016;-66
2023/10/05 04:15:22;;;;;;;;;1.00;1.00;;;;;15.47;67.91;102148.09;4990017;28;9015;-68
2023/10/05 04:17:49;;;;;;;;;0.33;0.33;;;;;15.48;68.01;102153.34;4989707;28;8876;-68
2023/10/05 04:20:21;;;;;;;;;3.25;1.00;;;;;15.48;67.98;102147.09;4990432;28;9053;-67
2023/10/05 04:22:49;;;;;;;;;0.00;0.00;;;;;15.48;68.19;102150.63;4988179;28;8842;-67
2023/10/05 04:25:16;;;;;;;;;0.00;0.00;;;;;15.45;68.16;102153.72;5004230;28;8825;-68
2023/10/05 04:27:46;;;;;;;;;0.00;0.00;;;;;15.45;68.35;102150.19;4988532;28;8948;-68
2023/10/05 04:30:16;;;;;;;;;2.33;1.00;;;;;15.44;68.51;102148.50;5008442;28;8841;-68
2023/10/05 04:32:43;;;;;;;;;1.00;0.00;;;;;15.43;68.42;102149.53;5024883;28;9085;-67
2023/10/05 04:35:14;;;;;;;;;0.00;0.00;;;;;15.43;68.37;102160.38;4993607;28;9084;-68
2023/10/05 04:37:43;;;;;;;;;4.00;1.00;;;;;15.44;68.95;102151.22;4991527;28;9052;-66
2023/10/05 04:40:10;;;;;;;;;2.00;0.67;;;;;15.44;68.82;102157.50;4995064;28;9000;-68
2023/10/05 04:42:36;;;;;;;;;1.00;1.00;;;;;15.47;68.61;102164.38;4993966;28;9037;-68
2023/10/05 04:45:11;;;;;;;;;2.00;2.00;;;;;15.46;68.82;102166.25;4974772;28;8995;-68
2023/10/05 04:47:38;;;;;;;;;0.33;0.00;;;;;15.47;68.69;102154.34;4991988;28;9709;-68
2023/10/05 04:50:13;;;;;;;;;0.25;0.25;;;;;15.47;69.27;102153.53;4992039;28;8930;-68
2023/10/05 04:52:39;;;;;;;;;1.67;1.67;;;;;15.48;69.11;102166.09;4990638;28;8818;-67
2023/10/05 04:55:30;;;;;;;;;0.33;0.33;;;;;15.47;69.51;102157.06;4996572;28;9047;-68
2023/10/05 04:58:14;;;;;;;;;4.00;3.00;;;;;15.45;69.28;102151.00;5006672;28;9165;-67
2023/10/05 05:03:17;;;;;;;;;1.50;1.00;;;;;15.48;69.76;102166.09;5003498;28;9007;-67
2023/10/05 05:08:39;;;;;;;;;0.33;0.00;;;;;15.49;70.02;102168.59;4984790;28;9021;-68
2023/10/05 05:11:11;;;;;;;;;0.00;0.00;;;;;15.49;69.98;102171.31;5000873;28;9775;-66
2023/10/05 05:13:38;;;;;;;;;1.00;1.00;;;;;15.48;70.07;102175.06;4991835;28;9050;-66
2023/10/05 05:16:05;;;;;;;;;0.33;0.33;;;;;15.50;70.17;102180.28;4992163;28;8952;-70
2023/10/05 05:18:32;;;;;;;;;1.00;1.00;;;;;15.49;70.06;102170.47;4992419;28;9861;-67
2023/10/05 05:20:58;;;;;;;;;0.00;0.00;;;;;15.45;70.41;102167.31;4996402;28;9044;-66
2023/10/05 05:23:25;;;;;;;;;0.67;0.67;;;;;15.48;70.43;102177.78;4992225;28;9691;-68
2023/10/05 05:25:52;;;;;;;;;1.00;1.00;;;;;15.45;70.39;102174.59;4995991;28;8952;-67
2023/10/05 05:28:18;;;;;;;;;2.00;1.00;;;;;15.45;70.67;102189.00;4987638;28;8964;-67
2023/10/05 05:30:47;;;;;;;;;0.33;0.00;;;;;15.48;70.94;102187.78;4991978;28;9008;-68
2023/10/05 05:33:13;;;;;;;;;1.00;0.00;;;;;15.49;70.57;102189.47;4991508;28;8934;-66
2023/10/05 05:35:40;;;;;;;;;1.67;1.00;;;;;15.47;70.84;102191.50;4992997;28;9077;-67
2023/10/05 05:38:09;;;;;;;;;1.00;0.67;;;;;15.45;70.80;102185.47;4994268;28;8945;-67
2023/10/05 05:40:38;;;;;;;;;0.33;0.33;;;;;15.43;71.11;102182.09;4984939;28;8968;-67
2023/10/05 05:43:08;;;;;;;;;1.00;0.25;;;;;15.43;71.38;102173.94;4972919;28;9717;-67
2023/10/05 05:45:39;;;;;;;;;1.00;1.00;;;;;15.47;71.30;102186.09;4973167;28;8871;-67
2023/10/05 05:48:09;;;;;;;;;1.00;1.00;;;;;15.47;71.36;102183.38;4999609;28;8857;-66
2023/10/05 05:50:39;;;;;;;;;1.00;1.00;;;;;15.48;71.64;102183.19;4991580;28;9191;-67
2023/10/05 05:53:07;;;;;;;;;1.67;1.00;;;;;15.51;71.67;102190.09;5009566;28;8948;-67
2023/10/05 05:55:33;;;;;;;;;0.33;0.33;;;;;15.51;71.80;102187.38;5006965;28;9046;-66
2023/10/05 05:58:00;;;;;;;;;3.00;1.33;;;;;15.49;71.71;102198.44;4992129;28;8938;-67
2023/10/05 06:00:28;;;;;;;;;2.25;2.25;;;;;15.47;71.75;102195.06;5007370;28;8998;-67
2023/10/05 06:02:55;;;;;;;;;2.50;1.00;;;;;15.50;72.22;102191.13;5023583;28;8855;-67
2023/10/05 06:05:24;;;;;;;;;3.00;3.00;;;;;15.52;72.17;102194.50;4990889;28;8884;-67
2023/10/05 06:07:51;;;;;;;;;0.33;0.33;;;;;15.53;72.13;102188.88;5006969;28;9090;-68
2023/10/05 06:10:18;;;;;;;;;1.00;1.00;;;;;15.54;72.30;102187.84;4989745;28;8911;-67
2023/10/05 06:12:51;;;;;;;;;0.00;0.00;;;;;15.55;72.38;102194.09;5006684;28;8952;-68
2023/10/05 06:15:18;;;;;;;;;2.00;1.00;;;;;15.56;72.05;102199.34;5003353;28;8861;-67
2023/10/05 06:17:44;;;;;;;;;0.25;0.25;;;;;15.57;72.53;102192.88;5002296;28;9028;-68
2023/10/05 06:20:14;;;;;;;;;2.33;2.00;;;;;15.59;72.46;102198.09;4990511;28;8963;-67
2023/10/05 06:22:45;;;;;;;;;1.00;1.00;;;;;15.62;72.42;102205.03;4995484;28;8953;-67
2023/10/05 06:25:15;;;;;;;;;1.00;1.00;;;;;15.62;72.63;102199.59;4989430;28;8865;-67
2023/10/05 06:27:44;;;;;;;;;1.75;1.75;;;;;15.63;72.78;102206.69;4990444;28;8928;-68
2023/10/05 06:30:11;;;;;;;;;0.75;0.50;;;;;15.62;72.57;102211.28;4988168;28;8826;-69
2023/10/05 06:32:39;;;;;;;;;2.00;2.00;;;;;15.63;72.72;102217.56;5003493;28;8867;-67
2023/10/05 06:35:09;;;;;;;;;2.00;2.00;;;;;15.63;72.96;102221.13;5012058;28;8869;-68
2023/10/05 06:37:39;;;;;;;;;1.75;1.00;;;;;15.63;72.93;102221.13;4991492;28;8846;-68
2023/10/05 06:40:12;;;;;;;;;2.25;0.75;;;;;15.65;73.06;102215.53;5006589;28;8952;-68
2023/10/05 06:42:41;;;;;;;;;2.00;1.50;;;;;15.67;73.16;102224.31;4991328;28;8830;-67
2023/10/05 06:45:11;;;;;;;;;3.00;1.00;;;;;15.67;72.91;102222.44;4991314;28;8833;-68
2023/10/05 06:47:38;;;;;;;;;1.00;1.00;;;;;15.68;73.29;102226.84;4989614;28;8935;-67
2023/10/05 06:50:08;;;;;;;;;1.50;1.00;;;;;15.69;73.42;102225.81;4991420;28;9010;-68
2023/10/05 06:52:39;;;;;;;;;5.00;3.67;;;;;15.68;73.54;102232.28;4989627;28;8853;-68
2023/10/05 06:55:07;;;;;;;;;2.50;1.00;;;;;15.70;73.72;102234.78;4973878;28;9068;-68
2023/10/05 06:57:38;;;;;;;;;1.33;1.00;;;;;15.73;73.64;102246.09;4982676;28;8848;-68
2023/10/05 07:00:20;;;;;;;;;2.50;1.00;;;;;15.73;73.85;102243.41;4990601;28;8922;-68
2023/10/05 07:02:53;;;;;;;;;1.50;1.00;;;;;15.74;73.81;102249.66;5022350;28;8868;-68
2023/10/05 07:05:20;;;;;;;;;1.00;1.00;;;;;15.74;73.68;102257.81;5022787;28;8861;-68
2023/10/05 07:07:47;;;;;;;;;0.00;0.00;;;;;15.71;74.05;102258.19;4990988;28;8857;-67
2023/10/05 07:10:15;;;;;;;;;1.00;1.00;;;;;15.72;73.91;102266.16;4991002;28;8945;-67
2023/10/05 07:12:46;;;;;;;;;1.00;0.75;;;;;15.74;74.08;102268.66;4989184;28;8908;-68
2023/10/05 07:15:15;;;;;;;;;3.00;2.33;;;;;15.74;74.17;102269.50;4988974;28;8825;-67
2023/10/05 07:17:42;;;;;;;;;2.00;2.00;;;;;15.75;74.05;102271.16;4986789;28;9023;-68
2023/10/05 07:20:12;;;;;;;;;3.00;2.00;;;;;15.77;74.08;102274.56;5022306;28;8842;-68
2023/10/05 07:22:44;;;;;;;;;1.00;1.00;;;;;15.74;74.47;102280.34;4990559;28;8853;-68
2023/10/05 07:25:11;;;;;;;;;2.00;2.00;;;;;15.74;74.20;102274.94;4988746;28;8866;-68
2023/10/05 07:27:39;;;;;;;;;0.25;0.00;;;;;15.78;74.48;102288.97;5018049;28;9032;-68
2023/10/05 07:30:08;;;;;;;;;1.00;1.00;;;;;15.76;74.73;102282.91;4991205;28;9587;-68
2023/10/05 07:32:35;;;;;;;;;0.25;0.25;;;;;15.79;74.50;102285.19;4990934;28;8837;-68
2023/10/05 07:35:05;;;;;;;;;2.00;2.00;;;;;15.80;74.63;102293.19;4989120;28;8856;-68
2023/10/05 07:37:33;;;;;;;;;1.00;1.00;;;;;15.80;74.75;102295.06;4990012;28;8996;-67
2023/10/05 07:40:00;;;;;;;;;0.00;0.00;;;;;15.82;74.99;102295.69;4989435;28;8913;-68
2023/10/05 07:42:28;;;;;;;;;1.00;1.00;;;;;15.82;74.74;102299.25;4990673;28;9836;-67
2023/10/05 07:44:56;;;;;;;;;0.25;0.25;;;;;15.82;75.00;102301.13;4989465;28;8865;-68
2023/10/05 07:47:24;;;;;;;;;1.33;1.33;;;;;15.85;74.87;102297.19;4990492;28;8873;-68
2023/10/05 07:49:55;;;;;;;;;2.00;2.00;;;;;15.82;75.10;102301.94;4989445;28;8926;-68
2023/10/05 07:52:22;;;;;;;;;1.00;0.75;;;;;15.86;75.09;102298.84;5006054;28;8842;-68
2023/10/05 07:54:48;;;;;;;;;1.00;0.00;;;;;15.89;75.08;102309.34;4990799;28;8941;-68
2023/10/05 07:57:15;;;;;;;;;2.25;1.75;;;;;15.88;75.19;102310.34;4990650;28;8846;-67
2023/10/05 07:59:42;;;;;;;;;2.00;1.00;;;;;15.90;75.62;102314.56;4990956;28;8857;-70
2023/10/05 08:02:13;;;;;;;;;1.25;1.25;;;;;15.86;75.66;102310.56;5006024;28;8844;-68
2023/10/05 08:04:41;;;;;;;;;2.00;1.00;;;;;15.87;75.70;102322.25;4993945;28;8845;-67
2023/10/05 08:07:08;;;;;;;;;0.25;0.25;;;;;15.90;76.41;102311.84;4992876;28;9131;-65
2023/10/05 08:09:34;;;;;;;;;2.00;2.00;;;;;15.96;76.66;102321.09;4994376;28;8840;-67
2023/10/05 08:12:02;;;;;;;;;0.75;0.75;;;;;15.96;76.78;102313.81;4994577;28;8929;-68
2023/10/05 08:14:30;;;;;;;;;1.25;1.00;;;;;15.98;76.99;102322.59;4993025;28;8848;-68
2023/10/05 08:16:58;;;;;;;;;1.33;1.33;;;;;16.00;77.28;102323.25;4992445;28;8884;-67
2023/10/05 08:19:26;;;;;;;;;1.00;1.00;;;;;16.02;77.53;102331.19;4994113;28;8995;-67
2023/10/05 08:21:55;;;;;;;;;1.50;1.00;;;;;16.02;77.60;102323.88;4994394;28;8861;-68
2023/10/05 08:24:23;;;;;;;;;1.00;1.00;;;;;16.02;77.81;102336.63;4994565;28;8861;-68
2023/10/05 08:26:52;;;;;;;;;1.00;0.00;;;;;16.02;77.73;102333.91;5008836;28;8841;-68
2023/10/05 08:29:22;;;;;;;;;1.67;1.67;;;;;16.03;77.92;102330.16;4992957;28;8860;-67
2023/10/05 08:31:49;;;;;;;;;2.00;0.50;;;;;16.03;78.29;102333.69;5009267;28;8938;-67
2023/10/05 08:34:22;;;;;;;;;2.00;1.00;;;;;16.03;78.23;102341.00;4994092;28;8863;-67
2023/10/05 08:36:53;;;;;;;;;2.25;1.75;;;;;15.99;78.18;102340.56;4993980;28;8934;-67
2023/10/05 08:39:26;;;;;;;;;1.50;1.50;;;;;15.98;78.30;102349.75;4991351;28;8834;-67
2023/10/05 08:42:06;;;;;;;;;1.50;1.00;;;;;15.99;78.87;102350.59;4992334;28;9630;-67
2023/10/05 08:44:38;;;;;;;;;3.00;1.25;;;;;16.00;78.91;102350.41;5025332;28;9589;-67
2023/10/05 08:47:10;;;;;;;;;2.50;1.00;;;;;16.00;78.99;102360.41;4993417;28;8841;-68
2023/10/05 08:49:38;;;;;;;;;1.00;1.00;;;;;16.01;79.33;102356.69;4992522;28;8853;-67
2023/10/05 08:52:13;;;;;;;;;2.00;2.00;;;;;16.00;79.34;102365.84;4993803;28;8861;-67
2023/10/05 08:54:45;;;;;;;;;1.00;0.25;;;;;15.98;80.00;102366.03;5014874;23;8934;-69
2023/10/05 08:57:12;;;;;;;;;0.75;0.75;;;;;16.01;79.74;102370.25;4993134;28;8875;-69
2023/10/05 08:59:45;;;;;;;;;2.00;2.00;;;;;15.99;79.91;102384.00;4993338;28;8874;-69
2023/10/05 09:02:12;;;;;;;;;1.50;1.50;;;;;16.00;80.26;102365.84;4986150;28;8836;-69
2023/10/05 09:04:44;;;;;;;;;1.00;1.00;;;;;15.96;80.58;102384.41;4993300;28;8905;-68
2023/10/05 09:07:27;;;;;;;;;1.00;1.00;;;;;15.97;80.54;102388.81;4992524;28;8945;-68
2023/10/05 09:09:54;;;;;;;;;1.00;0.50;;;;;15.98;80.87;102400.50;4975800;28;9588;-69
2023/10/05 09:12:35;;;;;;;;;1.00;1.00;;;;;16.00;81.25;102399.31;4991827;28;8832;-68
2023/10/05 09:15:10;;;;;;;;;2.75;1.00;;;;;16.00;81.27;102407.44;4992784;28;8849;-69
2023/10/05 09:20:31;;;;;;;;;2.00;2.00;;;;;16.01;80.80;102405.56;4988066;28;8933;-69
2023/10/05 09:23:01;;;;;;;;;2.00;1.25;;;;;16.04;81.18;102408.75;4973379;28;8827;-69
2023/10/05 09:25:35;;;;;;;;;1.25;1.00;;;;;16.07;80.65;102405.63;4955714;28;8870;-69
2023/10/05 09:28:16;;;;;;;;;3.00;3.00;;;;;16.10;80.98;102406.28;4956226;28;8846;-69
2023/10/05 09:30:57;;;;;;;;;2.00;2.00;;;;;16.09;80.69;102404.63;4971406;28;8926;-69
2023/10/05 09:33:33;;;;;;;;;2.33;2.33;;;;;16.11;80.68;102407.97;5008012;28;8861;-69
2023/10/05 09:36:16;;;;;;;;;1.75;1.75;;;;;16.14;80.71;102405.72;4972481;28;9029;-69
2023/10/05 09:38:46;;;;;;;;;1.75;0.75;;;;;16.19;80.22;102397.81;4972673;28;8846;-69
2023/10/05 09:41:20;;;;;;;;;3.00;2.00;;;;;16.21;80.32;102401.19;4973440;28;8915;-69
2023/10/05 09:43:58;;;;;;;;;3.00;2.50;;;;;16.20;80.35;102396.75;4983540;28;8898;-68
2023/10/05 09:46:29;;;;;;;;;2.00;2.00;;;;;16.16;80.40;102391.91;4991419;28;8864;-68
2023/10/05 09:49:01;;;;;;;;;3.75;2.50;;;;;16.19;79.83;102394.25;4973976;28;8875;-69
2023/10/05 09:51:29;;;;;;;;;2.00;1.00;;;;;16.23;79.82;102399.09;4990451;28;8842;-68
2023/10/05 09:53:56;;;;;;;;;2.50;2.50;;;;;16.27;79.51;102397.69;4991483;28;8845;-68
2023/10/05 09:56:25;;;;;;;;;1.50;1.25;;;;;16.29;79.61;102406.50;4986853;28;8949;-68
2023/10/05 09:59:15;;;;;;;;;1.00;1.00;;;;;16.32;79.31;102406.09;4955005;28;8883;-68
2023/10/05 10:01:45;;;;;;;;;1.25;1.25;;;;;16.31;79.23;102409.84;4971235;28;8906;-69
2023/10/05 10:04:28;;;;;;;;;2.75;2.00;;;;;16.32;78.75;102406.09;4955054;28;8831;-68
2023/10/05 10:07:01;;;;;;;;;2.00;1.00;;;;;16.31;78.77;102403.56;4954562;28;8835;-68
2023/10/05 10:09:28;;;;;;;;;3.50;3.25;;;;;16.34;79.02;102402.34;4973669;28;8951;-70
2023/10/05 10:12:00;;;;;;;;;0.75;0.75;;;;;16.39;78.60;102413.47;4973802;28;8914;-69
2023/10/05 10:14:28;;;;;;;;;2.00;2.00;;;;;16.43;78.67;102403.91;4991148;28;9018;-69
2023/10/05 10:17:00;;;;;;;;;2.00;1.50;;;;;16.45;78.45;102416.28;4991084;28;8833;-71
2023/10/05 10:19:28;;;;;;;;;2.00;2.00;;;;;16.47;78.17;102413.34;4991534;28;8848;-69
2023/10/05 10:22:07;;;;;;;;;2.75;1.75;;;;;16.48;78.07;102421.28;4991107;28;8820;-68
2023/10/05 10:24:34;;;;;;;;;1.50;1.00;;;;;16.45;78.38;102415.44;4986779;28;8887;-70
2023/10/05 10:27:08;;;;;;;;;3.00;3.00;;;;;16.47;77.82;102414.19;4972698;28;8837;-69
2023/10/05 10:29:42;;;;;;;;;1.50;0.00;;;;;16.47;77.54;102413.34;4989725;28;8862;-70
2023/10/05 10:32:31;;;;;;;;;5.00;2.00;;;;;16.51;77.19;102414.63;4981727;28;8851;-70
2023/10/05 10:35:26;;;;;;;;;2.00;1.25;;;;;16.46;77.24;102411.66;4982995;28;8831;-68
2023/10/05 10:37:59;;;;;;;;;2.75;2.25;;;;;16.49;76.58;102411.28;4990653;28;8841;-69
2023/10/05 10:40:26;;;;;;;;;1.75;1.75;;;;;16.56;76.55;102413.00;4974213;28;8839;-68
2023/10/05 10:45:41;;;;;;;;;2.75;2.00;;;;;16.69;76.48;102417.75;4971314;28;8882;-68
2023/10/05 10:48:12;;;;;;;;;1.00;1.00;;;;;16.71;76.82;102415.66;4981894;28;8864;-68
2023/10/05 10:50:39;;;;;;;;;2.50;2.00;;;;;16.73;76.35;102416.34;4973377;28;9681;-69
2023/10/05 10:53:16;;;;;;;;;2.25;2.00;;;;;16.73;76.39;102419.06;4972840;28;8974;-70
2023/10/05 10:55:52;;;;;;;;;1.25;1.00;;;;;16.76;76.22;102417.81;4972741;28;8837;-69
2023/10/05 10:58:24;;;;;;;;;2.75;2.75;;;;;16.79;76.19;102411.97;4969566;28;8865;-69
2023/10/05 11:00:55;;;;;;;;;1.75;1.50;;;;;16.74;76.00;102417.19;4953799;28;8835;-70
2023/10/05 11:03:42;;;;;;;;;3.00;2.00;;;;;16.84;75.76;102417.66;4953850;28;8827;-69
2023/10/05 11:06:15;;;;;;;;;4.00;3.00;;;;;16.91;75.67;102415.00;4953337;28;8843;-69
2023/10/05 11:08:49;;;;;;;;;2.00;1.50;;;;;16.95;75.06;102417.13;4971061;28;8979;-70
2023/10/05 11:11:16;;;;;;;;;2.00;1.00;;;;;17.01;74.87;102423.63;4987466;28;8934;-70
2023/10/05 11:13:54;;;;;;;;;3.25;1.00;;;;;17.07;74.83;102420.13;4972303;28;8832;-70
2023/10/05 11:16:32;;;;;;;;;1.00;1.00;;;;;17.18;74.42;102421.47;4990042;28;9567;-70
2023/10/05 11:18:58;;;;;;;;;2.00;2.00;;;;;17.23;74.28;102408.94;4988719;28;8855;-70
2023/10/05 11:21:26;;;;;;;;;2.00;2.00;;;;;17.23;74.13;102411.66;4990216;28;8852;-71
2023/10/05 11:23:57;;;;;;;;;1.50;1.50;;;;;17.21;74.06;102424.63;4990082;28;8852;-71
2023/10/05 11:26:35;;;;;;;;;3.00;2.00;;;;;17.28;73.51;102414.63;4976823;28;8847;-71
2023/10/05 11:29:20;;;;;;;;;1.00;1.00;;;;;17.27;73.52;102418.38;4970671;28;8901;-70
2023/10/05 11:31:51;;;;;;;;;3.00;2.25;;;;;17.28;72.65;102413.78;4953307;28;8881;-70
2023/10/05 11:34:39;;;;;;;;;2.00;2.00;;;;;17.35;72.41;102414.66;4953170;28;8847;-70
2023/10/05 11:37:16;;;;;;;;;1.00;0.25;;;;;17.45;72.50;102406.97;4970291;28;8819;-70
2023/10/05 11:39:49;;;;;;;;;0.75;0.75;;;;;17.48;72.78;102406.56;4970737;28;9660;-70
2023/10/05 11:42:26;;;;;;;;;3.50;2.00;;;;;17.50;72.25;102409.94;4985758;28;8836;-70
2023/10/05 11:45:00;;;;;;;;;1.00;0.25;;;;;17.60;71.75;102403.28;4989772;28;8863;-69
2023/10/05 11:47:44;;;;;;;;;1.50;1.25;;;;;17.66;71.62;102406.03;4971769;28;8859;-69
2023/10/05 11:50:33;;;;;;;;;1.00;1.00;;;;;17.72;71.28;102407.09;4979165;28;8839;-69
2023/10/05 11:53:07;;;;;;;;;2.00;2.00;;;;;17.75;71.16;102410.28;4989725;28;8840;-69
2023/10/05 11:55:35;;;;;;;;;1.50;1.50;;;;;17.72;70.73;102405.22;4984742;28;8843;-69
2023/10/05 11:58:02;;;;;;;;;2.50;0.00;;;;;17.72;70.16;102407.94;4985163;28;8832;-69
2023/10/05 12:00:31;;;;;;;;;1.25;0.75;;;;;17.81;70.21;102411.34;4968820;28;8839;-69
2023/10/05 12:02:58;;;;;;;;;1.00;1.00;;;;;17.83;69.77;102406.53;4979050;28;8832;-69
2023/10/05 12:05:25;;;;;;;;;1.25;1.25;;;;;17.91;69.77;102411.81;4989579;28;8855;-70
2023/10/05 12:07:52;;;;;;;;;1.00;1.00;;;;;17.94;69.75;102408.66;4989365;28;8829;-69
2023/10/05 12:10:19;;;;;;;;;2.75;1.25;;;;;17.97;69.66;102410.97;4977995;28;8925;-69
2023/10/05 12:12:50;;;;;;;;;1.75;1.75;;;;;17.86;69.58;102417.00;4988009;28;8833;-69
2023/10/05 12:15:17;;;;;;;;;1.75;1.00;;;;;17.84;68.99;102416.38;4989698;28;8863;-69